.
WxDataArchive / Data Records for 2007-11-30
2007-11-29 November 2007 2007-12-01

Data Records for Friday, 30 November 2007

Time	Temp	Chill	HIndex	Humid	Dewpt	 Wind 	HiWind	WindDir	Rain 	Barom 
-----	----	-----	------	-----	-----	------	------	-------	-----	----- 
00:00	28.4	28.4	28.4	71	20.2	1	3	248	0.00	30.260 
00:05	28.5	28.5	28.5	71	20.3	1	2	248	0.00	30.259 
00:10	28.7	28.7	28.7	71	20.5	0	2	248	0.00	30.257 
00:15	28.7	28.7	28.7	71	20.5	0	2	248	0.00	30.257 
00:20	28.7	28.7	28.7	71	20.5	1	3	248	0.00	30.256 
00:25	28.8	28.8	28.8	71	20.6	1	3	248	0.00	30.256 
00:30	29.0	29.0	29.0	71	20.8	1	4	248	0.00	30.257 
00:35	29.0	29.0	29.0	70	20.5	0	3	248	0.00	30.258 
00:40	29.0	29.0	29.0	70	20.5	1	5	248	0.00	30.256 
00:45	29.1	29.1	29.1	70	20.6	0	2	248	0.00	30.255 
00:50	29.1	29.1	29.1	70	20.6	1	3	248	0.00	30.257 
00:55	29.1	29.1	29.1	70	20.6	1	3	248	0.00	30.259 
01:00	29.3	29.3	29.3	70	20.8	1	4	248	0.00	30.257 
01:05	29.3	29.3	29.3	70	20.8	1	9	225	0.00	30.257 
01:10	29.3	29.3	29.3	70	20.8	1	4	248	0.00	30.260 
01:15	29.4	29.4	29.4	70	20.8	1	4	248	0.00	30.256 
01:20	29.4	29.4	29.4	70	20.8	1	3	248	0.00	30.254 
01:25	29.4	29.4	29.4	70	20.8	1	3	248	0.00	30.254 
01:30	29.4	29.4	29.4	70	20.8	0	5	248	0.00	30.254 
01:35	29.4	29.4	29.4	70	20.8	1	3	248	0.00	30.253 
01:40	29.4	29.4	29.4	70	20.8	1	3	248	0.00	30.253 
01:45	29.4	29.4	29.4	70	20.8	1	3	248	0.00	30.252 
01:50	29.4	29.4	29.4	70	20.8	1	6	248	0.00	30.250 
01:55	29.3	29.3	29.3	71	21.1	1	3	248	0.00	30.249 
02:00	29.3	29.3	29.3	71	21.1	1	5	248	0.00	30.243 
02:05	29.1	29.1	29.1	71	20.9	1	4	248	0.00	30.240 
02:10	29.1	29.1	29.1	71	20.9	1	5	248	0.00	30.243 
02:15	29.1	29.1	29.1	71	20.9	1	2	248	0.00	30.245 
02:20	29.0	29.0	29.0	71	20.8	1	3	248	0.00	30.244 
02:25	28.8	28.8	28.8	71	20.6	1	2	248	0.00	30.244 
02:30	28.8	28.8	28.8	71	20.6	0	3	248	0.00	30.246 
02:35	28.7	28.7	28.7	72	20.8	0	2	248	0.00	30.248 
02:40	28.8	28.8	28.8	72	20.9	0	2	248	0.00	30.248 
02:45	28.8	28.8	28.8	72	20.9	0	2	248	0.00	30.241 
02:50	29.0	29.0	29.0	72	21.1	0	2	248	0.00	30.246 
02:55	29.1	29.1	29.1	71	20.9	1	3	248	0.00	30.249 
03:00	29.3	29.3	29.3	71	21.1	1	5	248	0.00	30.247 
03:05	29.5	29.5	29.5	70	20.9	1	3	248	0.00	30.249 
03:10	29.7	29.7	29.7	69	20.8	1	3	225	0.00	30.250 
03:15	29.7	29.7	29.7	69	20.8	1	3	248	0.00	30.251 
03:20	30.0	30.0	30.0	69	21.1	2	5	248	0.00	30.250 
03:25	30.1	30.1	30.1	68	20.8	2	6	248	0.00	30.246 
03:30	30.3	30.3	30.3	67	20.7	2	5	248	0.00	30.247 
03:35	30.3	30.3	30.3	67	20.7	1	4	248	0.00	30.246 
03:40	30.3	30.3	30.3	67	20.7	1	3	248	0.00	30.249 
03:45	30.3	30.3	30.3	67	20.7	1	7	248	0.00	30.244 
03:50	30.4	30.4	30.4	67	20.8	2	5	248	0.00	30.243 
03:55	30.3	30.3	30.3	67	20.7	1	3	225	0.00	30.238 
04:00	30.1	30.1	30.1	67	20.5	1	3	248	0.00	30.236 
04:05	30.1	30.1	30.1	67	20.5	2	6	248	0.00	30.239 
04:10	30.1	30.1	30.1	67	20.5	2	5	248	0.00	30.239 
04:15	30.1	30.1	30.1	67	20.5	1	5	248	0.00	30.238 
04:20	30.0	30.0	30.0	66	20.0	2	5	248	0.00	30.237 
04:25	30.0	30.0	30.0	66	20.0	2	6	248	0.00	30.237 
04:30	29.8	29.8	29.8	66	19.8	1	5	248	0.00	30.232 
04:35	29.8	29.8	29.8	66	19.8	2	9	248	0.00	30.229 
04:40	29.7	29.7	29.7	66	19.8	2	9	248	0.00	30.226 
04:45	29.5	29.5	29.5	66	19.6	1	5	248	0.00	30.224 
04:50	29.4	29.4	29.4	66	19.5	2	5	248	0.00	30.223 
04:55	29.4	29.4	29.4	66	19.5	2	9	248	0.00	30.224 
05:00	29.4	29.4	29.4	66	19.5	1	5	248	0.00	30.225 
05:05	29.3	29.3	29.3	66	19.4	2	6	248	0.00	30.226 
05:10	29.3	29.3	29.3	66	19.4	2	7	248	0.00	30.226 
05:15	29.3	29.3	29.3	66	19.4	2	6	248	0.00	30.225 
05:20	29.3	29.3	29.3	66	19.4	2	5	248	0.00	30.226 
05:25	29.3	29.3	29.3	66	19.4	2	6	248	0.00	30.226 
05:30	29.4	29.4	29.4	65	19.1	2	5	248	0.00	30.225 
05:35	29.4	29.4	29.4	65	19.1	2	7	248	0.00	30.223 
05:40	29.4	29.4	29.4	65	19.1	2	6	248	0.00	30.222 
05:45	29.4	29.4	29.4	65	19.1	2	5	248	0.00	30.220 
05:50	29.4	29.4	29.4	65	19.1	1	6	248	0.00	30.219 
05:55	29.4	29.4	29.4	65	19.1	2	5	248	0.00	30.215 
06:00	29.4	29.4	29.4	65	19.1	2	6	248	0.00	30.216 
06:05	29.4	29.4	29.4	66	19.5	2	6	270	0.00	30.220 
06:10	29.3	29.3	29.3	66	19.4	2	5	248	0.00	30.222 
06:15	29.1	29.1	29.1	66	19.2	1	4	248	0.00	30.221 
06:20	29.1	29.1	29.1	66	19.2	2	7	248	0.00	30.218 
06:25	29.1	29.1	29.1	66	19.2	2	5	248	0.00	30.216 
06:30	29.0	29.0	29.0	66	19.1	2	4	248	0.00	30.214 
06:35	28.8	28.8	28.8	67	19.2	2	6	248	0.00	30.212 
06:40	28.8	28.8	28.8	67	19.2	2	5	248	0.00	30.211 
06:45	28.7	28.7	28.7	67	19.2	2	5	248	0.00	30.210 
06:50	28.7	28.7	28.7	67	19.2	3	6	248	0.00	30.209 
06:55	28.7	28.7	28.7	67	19.2	2	6	248	0.00	30.205 
07:00	28.7	28.7	28.7	67	19.2	2	9	248	0.00	30.202 
07:05	28.5	28.5	28.5	67	19.0	2	5	248	0.00	30.202 
07:10	28.5	28.5	28.5	67	19.0	2	9	248	0.00	30.197 
07:15	28.5	28.5	28.5	67	19.0	3	9	248	0.00	30.197 
07:20	28.7	28.7	28.7	67	19.2	2	9	248	0.00	30.197 
07:25	28.7	28.7	28.7	67	19.2	2	5	248	0.00	30.199 
07:30	28.5	28.5	28.5	67	19.0	2	6	248	0.00	30.197 
07:35	28.7	28.7	28.7	66	18.8	3	9	248	0.00	30.195 
07:40	28.8	28.8	28.8	66	18.9	3	9	248	0.00	30.196 
07:45	29.0	29.0	29.0	66	19.1	2	7	248	0.00	30.198 
07:50	29.0	29.0	29.0	66	19.1	3	12	248	0.00	30.198 
07:55	29.3	29.3	29.3	65	19.0	3	11	248	0.00	30.200 
08:00	29.4	25.1	29.4	65	19.1	4	7	248	0.00	30.196 
08:05	29.5	29.5	29.5	64	18.8	3	11	248	0.00	30.198 
08:10	29.8	29.8	29.8	63	18.8	3	6	248	0.00	30.195 
08:15	30.1	30.1	30.1	63	19.0	3	10	248	0.00	30.200 
08:20	30.3	30.3	30.3	62	18.9	2	7	270	0.00	30.200 
08:25	30.6	30.6	30.6	62	19.2	3	10	248	0.00	30.206 
08:30	30.9	30.9	30.9	60	18.7	3	7	248	0.00	30.206 
08:35	31.2	31.2	31.2	59	18.6	3	6	248	0.00	30.206 
08:40	31.6	31.6	31.6	59	18.9	3	11	248	0.00	30.203 
08:45	32.1	28.2	32.1	57	18.6	4	11	270	0.00	30.204 
08:50	32.7	28.9	32.7	55	18.3	4	11	248	0.00	30.202 
08:55	33.1	29.3	33.1	54	18.3	4	13	270	0.00	30.203 
09:00	33.5	29.8	33.5	53	18.2	4	12	248	0.00	30.205 
09:05	33.8	30.2	33.8	52	18.1	4	11	248	0.00	30.204 
09:10	34.1	29.5	34.1	51	17.9	5	14	248	0.00	30.204 
09:15	34.6	30.1	34.6	50	17.9	5	13	270	0.00	30.199 
09:20	34.9	29.7	34.9	49	17.7	6	13	248	0.00	30.198 
09:25	35.2	30.8	35.2	48	17.5	5	12	270	0.00	30.199 
09:30	35.5	32.1	35.5	48	17.8	4	12	248	0.00	30.195 
09:35	35.8	32.5	35.8	47	17.6	4	11	248	0.00	30.192 
09:40	35.9	30.9	35.9	47	17.7	6	18	248	0.00	30.195 
09:45	36.2	32.0	36.2	46	17.4	5	16	248	0.00	30.199 
09:50	36.6	32.5	36.6	46	17.8	5	12	270	0.00	30.199 
09:55	36.8	31.3	36.8	45	17.5	7	18	248	0.00	30.200 
10:00	37.0	32.9	37.0	45	17.7	5	14	270	0.00	30.193 
10:05	37.2	31.8	37.2	45	17.8	7	21	270	0.00	30.197 
10:10	37.3	31.9	37.3	44	17.4	7	19	270	0.00	30.201 
10:15	37.6	34.5	37.6	45	18.2	4	11	270	0.00	30.212 
10:20	38.0	34.1	38.0	44	18.0	5	13	270	0.00	30.214 
10:25	38.3	34.5	38.3	43	17.8	5	13	270	0.00	30.217 
10:30	38.5	34.7	38.5	42	17.4	5	13	270	0.00	30.211 
10:35	38.9	35.2	38.9	42	17.8	5	14	270	0.00	30.215 
10:40	39.1	35.4	39.1	43	18.5	5	13	270	0.00	30.212 
10:45	39.1	34.7	39.1	44	19.0	6	14	270	0.00	30.212 
10:50	38.9	33.8	38.9	44	18.9	7	17	270	0.00	30.209 
10:55	39.1	34.7	39.1	45	19.6	6	15	270	0.00	30.213 
11:00	39.3	35.7	39.3	45	19.8	5	9	270	0.00	30.214 
11:05	39.2	35.5	39.2	46	20.2	5	15	270	0.00	30.217 
11:10	39.3	35.7	39.3	46	20.3	5	14	270	0.00	30.215 
11:15	39.5	35.9	39.5	46	20.5	5	12	270	0.00	30.208 
11:20	39.5	36.7	39.5	46	20.5	4	11	270	0.00	30.207 
11:25	39.9	39.9	39.9	46	20.8	3	9	270	0.00	30.202 
11:30	40.1	37.4	40.1	46	21.0	4	12	270	0.00	30.200 
11:35	39.9	36.4	39.9	46	20.8	5	16	270	0.00	30.200 
11:40	40.1	37.4	40.1	46	21.0	4	11	270	0.00	30.201 
11:45	40.3	40.3	40.3	48	22.2	3	10	270	0.00	30.200 
11:50	40.5	37.9	40.5	45	20.8	4	17	270	0.00	30.203 
11:55	40.3	36.8	40.3	47	21.7	5	12	270	0.00	30.207 
12:00	40.3	36.8	40.3	47	21.7	5	12	270	0.00	30.207 
12:05	40.5	37.9	40.5	47	21.9	4	11	270	0.00	30.202 
12:10	40.8	38.2	40.8	47	22.1	4	7	270	0.00	30.202 
12:15	40.8	40.8	40.8	46	21.6	3	10	270	0.00	30.200 
12:20	40.5	37.9	40.5	46	21.4	4	7	270	0.00	30.200 
12:25	40.6	40.6	40.6	46	21.5	3	10	270	0.00	30.200 
12:30	40.9	40.9	40.9	46	21.7	3	7	270	0.00	30.202 
12:35	40.8	40.8	40.8	46	21.6	3	6	315	0.00	30.201 
12:40	40.9	38.4	40.9	46	21.7	4	7	270	0.00	30.199 
12:45	40.5	37.9	40.5	47	21.9	4	11	270	0.00	30.198 
12:50	40.3	37.7	40.3	47	21.7	4	12	270	0.00	30.199 
12:55	40.8	40.8	40.8	47	22.1	3	6	270	0.00	30.198 
13:00	40.8	40.8	40.8	46	21.6	3	7	270	0.00	30.196 
13:05	40.3	40.3	40.3	46	21.2	3	7	270	0.00	30.198 
13:10	40.5	40.5	40.5	48	22.4	3	9	270	0.00	30.198 
13:15	40.9	40.9	40.9	46	21.7	3	7	270	0.00	30.196 
13:20	40.6	37.2	40.6	46	21.5	5	16	270	0.00	30.197 
13:25	40.8	40.8	40.8	46	21.6	3	10	270	0.00	30.197 
13:30	40.6	38.0	40.6	45	20.9	4	9	270	0.00	30.197 
13:35	40.5	37.9	40.5	44	20.3	4	9	270	0.00	30.198 
13:40	40.8	40.8	40.8	45	21.1	2	4	292	0.00	30.197 
13:45	41.1	41.1	41.1	44	20.9	3	6	270	0.00	30.198 
13:50	41.3	41.3	41.3	45	21.6	2	4	270	0.00	30.199 
13:55	41.2	41.2	41.2	45	21.5	3	7	292	0.00	30.200 
14:00	40.8	38.2	40.8	42	19.5	4	10	270	0.00	30.201 
14:05	40.6	40.6	40.6	43	19.9	3	11	270	0.00	30.203 
14:10	40.5	40.5	40.5	42	19.2	3	7	292	0.00	30.207 
14:15	40.6	40.6	40.6	42	19.3	3	6	270	0.00	30.202 
14:20	41.1	41.1	41.1	40	18.6	2	6	270	0.00	30.201 
14:25	41.3	38.8	41.3	40	18.8	4	7	270	0.00	30.206 
14:30	41.6	41.6	41.6	39	18.5	3	6	270	0.00	30.212 
14:35	41.3	41.3	41.3	42	20.0	3	10	292	0.00	30.216 
14:40	41.2	41.2	41.2	48	23.0	2	6	270	0.00	30.215 
14:45	40.5	40.5	40.5	48	22.4	3	7	270	0.00	30.215 
14:50	40.2	40.2	40.2	48	22.1	2	5	270	0.00	30.222 
14:55	40.2	40.2	40.2	48	22.1	3	6	270	0.00	30.230 
15:00	39.6	36.9	39.6	48	21.5	4	14	270	0.00	30.230 
15:05	38.8	38.8	38.8	47	20.3	3	9	270	0.00	30.233 
15:10	38.6	38.6	38.6	46	19.6	3	6	270	0.00	30.233 
15:15	37.9	37.9	37.9	46	19.0	3	7	292	0.00	30.236 
15:20	37.5	37.5	37.5	47	19.1	3	7	315	0.00	30.242 
15:25	37.5	37.5	37.5	47	19.1	2	5	315	0.00	30.247 
15:30	37.3	37.3	37.3	47	18.9	2	7	315	0.00	30.251 
15:35	36.9	36.9	36.9	46	18.1	3	6	292	0.00	30.252 
15:40	36.8	36.8	36.8	46	18.0	3	9	292	0.00	30.258 
15:45	36.5	36.5	36.5	47	18.2	3	9	270	0.00	30.264 
15:50	36.3	36.3	36.3	48	18.5	2	5	315	0.00	30.265 
15:55	36.0	36.0	36.0	47	17.7	3	6	292	0.00	30.271 
16:00	35.6	35.6	35.6	47	17.4	3	7	292	0.00	30.276 
16:05	35.5	35.5	35.5	46	16.8	2	8	315	0.00	30.274 
16:10	35.2	35.2	35.2	47	17.0	3	7	315	0.00	30.275 
16:15	35.0	35.0	35.0	47	16.8	3	12	315	0.00	30.280 
16:20	34.7	34.7	34.7	46	16.1	3	6	338	0.00	30.281 
16:25	34.4	34.4	34.4	46	15.8	3	11	315	0.00	30.282 
16:30	34.3	34.3	34.3	47	16.2	2	6	315	0.00	30.285 
16:35	34.0	34.0	34.0	47	15.9	1	8	0	0.00	30.288 
16:40	33.8	33.8	33.8	46	15.2	3	6	338	0.00	30.295 
16:45	33.7	33.7	33.7	46	15.1	2	4	338	0.00	30.298 
16:50	33.5	33.5	33.5	45	14.5	2	10	338	0.00	30.300 
16:55	33.2	33.2	33.2	44	13.7	2	7	270	0.00	30.301 
17:00	33.1	33.1	33.1	45	14.1	2	8	270	0.00	30.303 
17:05	32.8	32.8	32.8	47	14.8	1	4	270	0.00	30.301 
17:10	32.5	32.5	32.5	48	15.0	2	5	270	0.00	30.305 
17:15	32.2	32.2	32.2	50	15.7	2	6	315	0.00	30.317 
17:20	31.9	31.9	31.9	50	15.4	2	4	248	0.00	30.316 
17:25	31.6	31.6	31.6	50	15.1	1	4	270	0.00	30.318 
17:30	31.3	31.3	31.3	49	14.4	1	3	292	0.00	30.319 
17:35	31.0	31.0	31.0	49	14.1	1	6	315	0.00	30.320 
17:40	30.9	30.9	30.9	49	14.0	1	3	338	0.00	30.320 
17:45	30.6	30.6	30.6	50	14.2	1	4	315	0.00	30.330 
17:50	30.3	30.3	30.3	50	13.9	1	4	315	0.00	30.335 
17:55	30.1	30.1	30.1	50	13.7	1	3	315	0.00	30.336 
18:00	30.0	30.0	30.0	51	14.1	1	4	292	0.00	30.340 
18:05	29.8	29.8	29.8	51	13.9	1	3	315	0.00	30.342 
18:10	29.7	29.7	29.7	51	13.8	1	4	270	0.00	30.343 
18:15	29.4	29.4	29.4	51	13.5	1	3	338	0.00	30.346 
18:20	29.3	29.3	29.3	51	13.4	0	2	292	0.00	30.351 
18:25	29.1	29.1	29.1	50	12.8	1	5	270	0.00	30.353 
18:30	29.0	29.0	29.0	50	12.7	1	3	338	0.00	30.352 
18:35	28.8	28.8	28.8	49	12.1	1	4	315	0.00	30.356 
18:40	28.8	28.8	28.8	49	12.1	0	3	338	0.00	30.357 
18:45	28.5	28.5	28.5	49	11.8	1	3	270	0.00	30.362 
18:50	28.4	28.4	28.4	48	11.2	1	4	270	0.00	30.367 
18:55	28.2	28.2	28.2	48	11.1	1	2	292	0.00	30.368 
19:00	28.2	28.2	28.2	48	11.1	1	3	338	0.00	30.369 
19:05	27.9	27.9	27.9	48	10.8	0	2	338	0.00	30.368 
19:10	27.9	27.9	27.9	48	10.8	1	5	338	0.00	30.370 
19:15	27.8	27.8	27.8	48	10.7	0	4	292	0.00	30.373 
19:20	27.6	27.6	27.6	49	11.0	1	5	292	0.00	30.377 
19:25	27.5	27.5	27.5	48	10.4	1	3	315	0.00	30.381 
19:30	27.3	27.3	27.3	48	10.2	1	3	292	0.00	30.382 
19:35	27.2	27.2	27.2	48	10.1	1	2	338	0.00	30.383 
19:40	27.0	27.0	27.0	49	10.4	1	3	292	0.00	30.385 
19:45	26.9	26.9	26.9	49	10.3	0	1	338	0.00	30.391 
19:50	26.7	26.7	26.7	50	10.6	0	2	292	0.00	30.394 
19:55	26.7	26.7	26.7	50	10.6	0	2	292	0.00	30.396 
20:00	26.6	26.6	26.6	51	10.9	0	2	292	0.00	30.398 
20:05	26.4	26.4	26.4	51	10.8	0	1	292	0.00	30.396 
20:10	26.3	26.3	26.3	51	10.7	0	2	292	0.00	30.396 
20:15	26.1	26.1	26.1	52	10.9	0	1	270	0.00	30.396 
20:20	26.0	26.0	26.0	52	10.8	0	1	270	0.00	30.396 
20:25	26.0	26.0	26.0	52	10.8	0	2	270	0.00	30.396 
20:30	26.0	26.0	26.0	52	10.8	0	1	270	0.00	30.398 
20:35	25.8	25.8	25.8	53	11.1	0	1	270	0.00	30.403 
20:40	25.7	25.7	25.7	53	11.0	0	2	270	0.00	30.407 
20:45	25.6	25.6	25.6	54	11.3	0	1	270	0.00	30.411 
20:50	25.4	25.4	25.4	54	11.1	0	1	270	0.00	30.412 
20:55	25.3	25.3	25.3	54	11.0	0	2	270	0.00	30.415 
21:00	25.1	25.1	25.1	54	10.8	0	1	270	0.00	30.414 
21:05	25.0	25.0	25.0	55	11.1	0	1	270	0.00	30.410 
21:10	24.8	24.8	24.8	56	11.4	0	1	270	0.00	30.411 
21:15	24.7	24.7	24.7	56	11.3	0	0	---	0.00	30.411 
21:20	24.5	24.5	24.5	55	10.7	0	1	270	0.00	30.411 
21:25	24.4	24.4	24.4	56	11.0	0	1	270	0.00	30.415 
21:30	24.2	24.2	24.2	58	11.6	0	1	270	0.00	30.417 
21:35	23.9	23.9	23.9	58	11.3	0	0	---	0.00	30.417 
21:40	23.6	23.6	23.6	58	11.0	0	0	---	0.00	30.419 
21:45	23.2	23.2	23.2	58	10.6	0	0	---	0.00	30.420 
21:50	23.0	23.0	23.0	59	10.8	0	0	---	0.00	30.421 
21:55	22.7	22.7	22.7	59	10.6	0	0	---	0.00	30.424 
22:00	22.5	22.5	22.5	60	10.7	0	0	---	0.00	30.421 
22:05	22.2	22.2	22.2	61	10.8	0	0	---	0.00	30.422 
22:10	21.9	21.9	21.9	61	10.5	0	0	---	0.00	30.422 
22:15	21.6	21.6	21.6	62	10.6	0	0	---	0.00	30.425 
22:20	21.3	21.3	21.3	63	10.7	0	0	---	0.00	30.424 
22:25	21.1	21.1	21.1	64	10.9	0	0	---	0.00	30.421 
22:30	21.0	21.0	21.0	64	10.8	0	0	---	0.00	30.427 
22:35	20.6	20.6	20.6	65	10.7	0	0	---	0.00	30.424 
22:40	20.3	20.3	20.3	65	10.4	0	0	---	0.00	30.428 
22:45	20.2	20.2	20.2	66	10.7	0	0	---	0.00	30.430 
22:50	19.9	19.9	19.9	67	10.7	0	0	---	0.00	30.430 
22:55	19.7	19.7	19.7	69	11.2	0	0	---	0.00	30.431 
23:00	19.4	19.4	19.4	69	10.9	0	0	---	0.00	30.430 
23:05	19.4	19.4	19.4	70	11.2	0	0	---	0.00	30.429 
23:10	19.4	19.4	19.4	70	11.2	0	0	---	0.00	30.430 
23:15	19.2	19.2	19.2	71	11.4	0	0	---	0.00	30.431 
23:20	19.5	19.5	19.5	70	11.3	0	1	270	0.00	30.443 
23:25	19.5	19.5	19.5	70	11.3	0	0	---	0.00	30.440 
23:30	19.5	19.5	19.5	70	11.3	0	0	---	0.00	30.442 
23:35	19.5	19.5	19.5	70	11.3	0	0	---	0.00	30.439 
23:40	19.5	19.5	19.5	69	11.0	0	0	---	0.00	30.432 
23:45	19.5	19.5	19.5	69	11.0	0	0	---	0.00	30.429 
23:50	19.4	19.4	19.4	69	10.9	0	0	---	0.00	30.430 
23:55	19.2	19.2	19.2	69	10.7	0	0	---	0.00	30.434 

CoCoRaHS
IN-AL-39
A2 Web Hosting
Creative Commons License
GoDaddy
Look for:

loaded 2017-12-12 14:48:37 • last modified 2010-11-18 10:43:29
Privacy PolicyDisclaimer
• wx.awcolley.com is powered by PmWiki v.2002016 •
• all content (unless otherwise noted) © 2017 A W Colley